sensor_id;sensor_type;location;lat;lon;timestamp;P1;durP1;ratioP1;P2;durP2;ratioP2
74510;SDS011;62991;50.040;18.400;2024-02-15T00:00:52;14.85;;;5.78;;
74510;SDS011;62991;50.040;18.400;2024-02-15T00:03:53;20.02;;;5.85;;
74510;SDS011;62991;50.040;18.400;2024-02-15T00:06:54;13.38;;;5.97;;
74510;SDS011;62991;50.040;18.400;2024-02-15T00:09:54;13.25;;;6.05;;
74510;SDS011;62991;50.040;18.400;2024-02-15T00:12:55;17.48;;;5.68;;
74510;SDS011;62991;50.040;18.400;2024-02-15T00:15:56;20.75;;;6.28;;
74510;SDS011;62991;50.040;18.400;2024-02-15T00:18:56;20.90;;;6.75;;
74510;SDS011;62991;50.040;18.400;2024-02-15T00:21:57;23.20;;;7.60;;
74510;SDS011;62991;50.040;18.400;2024-02-15T00:24:58;18.50;;;6.07;;
74510;SDS011;62991;50.040;18.400;2024-02-15T00:27:59;16.67;;;6.60;;
74510;SDS011;62991;50.040;18.400;2024-02-15T00:31:03;29.05;;;7.28;;
74510;SDS011;62991;50.040;18.400;2024-02-15T00:34:04;20.65;;;6.43;;
74510;SDS011;62991;50.040;18.400;2024-02-15T00:37:05;24.92;;;7.22;;
74510;SDS011;62991;50.040;18.400;2024-02-15T00:40:06;27.65;;;8.13;;
74510;SDS011;62991;50.040;18.400;2024-02-15T00:43:07;39.70;;;8.93;;
74510;SDS011;62991;50.040;18.400;2024-02-15T00:46:08;25.98;;;8.50;;
74510;SDS011;62991;50.040;18.400;2024-02-15T00:49:09;24.02;;;8.10;;
74510;SDS011;62991;50.040;18.400;2024-02-15T00:52:11;27.58;;;9.68;;
74510;SDS011;62991;50.040;18.400;2024-02-15T00:55:11;28.70;;;9.38;;
74510;SDS011;62991;50.040;18.400;2024-02-15T00:58:12;19.95;;;7.68;;
74510;SDS011;62991;50.040;18.400;2024-02-15T01:01:13;9.63;;;4.53;;
74510;SDS011;62991;50.040;18.400;2024-02-15T01:04:13;15.18;;;5.05;;
74510;SDS011;62991;50.040;18.400;2024-02-15T01:07:15;14.80;;;6.07;;
74510;SDS011;62991;50.040;18.400;2024-02-15T01:10:15;17.83;;;5.90;;
74510;SDS011;62991;50.040;18.400;2024-02-15T01:13:16;18.65;;;5.85;;
74510;SDS011;62991;50.040;18.400;2024-02-15T01:16:17;12.98;;;6.38;;
74510;SDS011;62991;50.040;18.400;2024-02-15T01:19:17;12.80;;;4.88;;
74510;SDS011;62991;50.040;18.400;2024-02-15T01:22:18;13.25;;;5.13;;
74510;SDS011;62991;50.040;18.400;2024-02-15T01:25:19;13.35;;;5.78;;
74510;SDS011;62991;50.040;18.400;2024-02-15T01:28:20;8.30;;;4.15;;
74510;SDS011;62991;50.040;18.400;2024-02-15T01:31:21;14.82;;;5.32;;
74510;SDS011;62991;50.040;18.400;2024-02-15T01:34:22;8.48;;;4.22;;
74510;SDS011;62991;50.040;18.400;2024-02-15T01:37:23;7.60;;;4.15;;
74510;SDS011;62991;50.040;18.400;2024-02-15T01:40:23;10.45;;;4.55;;
74510;SDS011;62991;50.040;18.400;2024-02-15T01:43:24;7.57;;;4.00;;
74510;SDS011;62991;50.040;18.400;2024-02-15T01:46:25;13.82;;;3.55;;
74510;SDS011;62991;50.040;18.400;2024-02-15T01:49:26;9.38;;;3.25;;
74510;SDS011;62991;50.040;18.400;2024-02-15T01:52:28;8.18;;;3.90;;
74510;SDS011;62991;50.040;18.400;2024-02-15T01:55:30;10.13;;;4.75;;
74510;SDS011;62991;50.040;18.400;2024-02-15T01:58:30;8.90;;;3.80;;
74510;SDS011;62991;50.040;18.400;2024-02-15T02:01:33;7.35;;;3.45;;
74510;SDS011;62991;50.040;18.400;2024-02-15T02:04:33;6.40;;;3.42;;
74510;SDS011;62991;50.040;18.400;2024-02-15T02:07:34;9.63;;;3.65;;
74510;SDS011;62991;50.040;18.400;2024-02-15T02:10:38;11.02;;;4.38;;
74510;SDS011;62991;50.040;18.400;2024-02-15T02:13:40;6.32;;;4.13;;
74510;SDS011;62991;50.040;18.400;2024-02-15T02:16:41;8.93;;;4.53;;
74510;SDS011;62991;50.040;18.400;2024-02-15T02:19:42;5.60;;;3.15;;
74510;SDS011;62991;50.040;18.400;2024-02-15T02:22:47;10.82;;;4.20;;
74510;SDS011;62991;50.040;18.400;2024-02-15T02:25:50;7.70;;;4.10;;
74510;SDS011;62991;50.040;18.400;2024-02-15T02:28:52;10.38;;;4.50;;
74510;SDS011;62991;50.040;18.400;2024-02-15T02:31:56;9.20;;;3.80;;
74510;SDS011;62991;50.040;18.400;2024-02-15T02:34:57;11.13;;;5.10;;
74510;SDS011;62991;50.040;18.400;2024-02-15T02:37:58;14.25;;;5.03;;
74510;SDS011;62991;50.040;18.400;2024-02-15T02:40:59;23.90;;;6.57;;
74510;SDS011;62991;50.040;18.400;2024-02-15T02:43:59;12.57;;;5.90;;
74510;SDS011;62991;50.040;18.400;2024-02-15T02:47:00;11.65;;;4.90;;
74510;SDS011;62991;50.040;18.400;2024-02-15T02:50:01;13.75;;;4.25;;
74510;SDS011;62991;50.040;18.400;2024-02-15T02:53:03;10.45;;;4.25;;
74510;SDS011;62991;50.040;18.400;2024-02-15T02:56:05;8.95;;;3.97;;
74510;SDS011;62991;50.040;18.400;2024-02-15T02:59:08;7.35;;;3.08;;
74510;SDS011;62991;50.040;18.400;2024-02-15T03:02:09;10.70;;;4.55;;
74510;SDS011;62991;50.040;18.400;2024-02-15T03:05:10;12.70;;;4.07;;
74510;SDS011;62991;50.040;18.400;2024-02-15T03:08:11;8.15;;;3.90;;
74510;SDS011;62991;50.040;18.400;2024-02-15T03:11:17;18.77;;;6.60;;
74510;SDS011;62991;50.040;18.400;2024-02-15T03:14:18;13.88;;;5.30;;
74510;SDS011;62991;50.040;18.400;2024-02-15T03:17:18;11.65;;;5.35;;
74510;SDS011;62991;50.040;18.400;2024-02-15T03:20:19;9.15;;;4.57;;
74510;SDS011;62991;50.040;18.400;2024-02-15T03:26:30;14.38;;;4.10;;
74510;SDS011;62991;50.040;18.400;2024-02-15T03:29:38;9.52;;;3.38;;
74510;SDS011;62991;50.040;18.400;2024-02-15T03:32:38;8.88;;;4.35;;
74510;SDS011;62991;50.040;18.400;2024-02-15T03:35:40;11.05;;;4.43;;
74510;SDS011;62991;50.040;18.400;2024-02-15T03:38:41;11.48;;;4.32;;
74510;SDS011;62991;50.040;18.400;2024-02-15T03:41:45;7.95;;;4.18;;
74510;SDS011;62991;50.040;18.400;2024-02-15T03:44:45;10.57;;;4.75;;
74510;SDS011;62991;50.040;18.400;2024-02-15T03:47:47;9.00;;;4.43;;
74510;SDS011;62991;50.040;18.400;2024-02-15T03:50:49;11.18;;;4.72;;
74510;SDS011;62991;50.040;18.400;2024-02-15T03:53:50;9.43;;;4.13;;
74510;SDS011;62991;50.040;18.400;2024-02-15T03:56:52;8.55;;;3.53;;
74510;SDS011;62991;50.040;18.400;2024-02-15T03:59:52;7.45;;;3.53;;
74510;SDS011;62991;50.040;18.400;2024-02-15T04:02:54;9.35;;;4.53;;
74510;SDS011;62991;50.040;18.400;2024-02-15T04:05:56;12.45;;;4.68;;
74510;SDS011;62991;50.040;18.400;2024-02-15T04:08:57;11.82;;;4.65;;
74510;SDS011;62991;50.040;18.400;2024-02-15T04:11:58;9.00;;;4.05;;
74510;SDS011;62991;50.040;18.400;2024-02-15T04:14:59;7.47;;;3.80;;
74510;SDS011;62991;50.040;18.400;2024-02-15T04:18:11;10.45;;;4.82;;
74510;SDS011;62991;50.040;18.400;2024-02-15T04:21:14;9.40;;;4.13;;
74510;SDS011;62991;50.040;18.400;2024-02-15T04:24:17;11.00;;;5.28;;
74510;SDS011;62991;50.040;18.400;2024-02-15T04:27:17;11.57;;;4.35;;
74510;SDS011;62991;50.040;18.400;2024-02-15T04:30:20;10.52;;;4.97;;
74510;SDS011;62991;50.040;18.400;2024-02-15T04:33:23;12.27;;;4.65;;
74510;SDS011;62991;50.040;18.400;2024-02-15T04:36:25;8.77;;;4.82;;
74510;SDS011;62991;50.040;18.400;2024-02-15T04:39:26;11.88;;;5.13;;
74510;SDS011;62991;50.040;18.400;2024-02-15T04:42:30;11.13;;;5.45;;
74510;SDS011;62991;50.040;18.400;2024-02-15T04:45:32;11.75;;;6.00;;
74510;SDS011;62991;50.040;18.400;2024-02-15T04:48:33;16.85;;;7.28;;
74510;SDS011;62991;50.040;18.400;2024-02-15T04:51:34;13.02;;;4.55;;
74510;SDS011;62991;50.040;18.400;2024-02-15T04:54:36;18.98;;;6.90;;
74510;SDS011;62991;50.040;18.400;2024-02-15T04:57:38;11.35;;;4.75;;
74510;SDS011;62991;50.040;18.400;2024-02-15T05:00:40;14.68;;;6.60;;
74510;SDS011;62991;50.040;18.400;2024-02-15T05:03:42;14.15;;;6.68;;
74510;SDS011;62991;50.040;18.400;2024-02-15T05:06:43;11.93;;;5.72;;
74510;SDS011;62991;50.040;18.400;2024-02-15T05:09:45;17.40;;;7.25;;
74510;SDS011;62991;50.040;18.400;2024-02-15T05:12:45;13.70;;;5.90;;
74510;SDS011;62991;50.040;18.400;2024-02-15T05:15:49;21.13;;;6.90;;
74510;SDS011;62991;50.040;18.400;2024-02-15T05:18:50;15.18;;;6.43;;
74510;SDS011;62991;50.040;18.400;2024-02-15T05:21:50;16.63;;;7.13;;
74510;SDS011;62991;50.040;18.400;2024-02-15T05:24:51;14.20;;;4.95;;
74510;SDS011;62991;50.040;18.400;2024-02-15T05:27:53;14.18;;;6.32;;
74510;SDS011;62991;50.040;18.400;2024-02-15T05:31:13;6.45;;;3.75;;
74510;SDS011;62991;50.040;18.400;2024-02-15T05:34:18;15.73;;;6.07;;
74510;SDS011;62991;50.040;18.400;2024-02-15T05:37:18;10.88;;;4.22;;
74510;SDS011;62991;50.040;18.400;2024-02-15T05:40:19;10.63;;;4.85;;
74510;SDS011;62991;50.040;18.400;2024-02-15T05:43:20;18.05;;;6.38;;
74510;SDS011;62991;50.040;18.400;2024-02-15T05:46:20;22.48;;;7.20;;
74510;SDS011;62991;50.040;18.400;2024-02-15T05:49:21;14.07;;;5.97;;
74510;SDS011;62991;50.040;18.400;2024-02-15T05:52:23;27.10;;;8.88;;
74510;SDS011;62991;50.040;18.400;2024-02-15T05:55:24;29.83;;;9.02;;
74510;SDS011;62991;50.040;18.400;2024-02-15T05:58:26;35.38;;;12.07;;
74510;SDS011;62991;50.040;18.400;2024-02-15T06:01:27;34.65;;;10.65;;
74510;SDS011;62991;50.040;18.400;2024-02-15T06:04:29;26.58;;;7.90;;
74510;SDS011;62991;50.040;18.400;2024-02-15T06:07:30;29.60;;;9.40;;
74510;SDS011;62991;50.040;18.400;2024-02-15T06:10:34;30.08;;;11.20;;
74510;SDS011;62991;50.040;18.400;2024-02-15T06:13:34;23.83;;;9.45;;
74510;SDS011;62991;50.040;18.400;2024-02-15T06:16:41;25.42;;;8.38;;
74510;SDS011;62991;50.040;18.400;2024-02-15T06:19:43;19.52;;;7.05;;
74510;SDS011;62991;50.040;18.400;2024-02-15T06:22:44;19.45;;;7.88;;
74510;SDS011;62991;50.040;18.400;2024-02-15T06:25:45;26.63;;;8.60;;
74510;SDS011;62991;50.040;18.400;2024-02-15T06:28:50;20.15;;;8.38;;
74510;SDS011;62991;50.040;18.400;2024-02-15T06:32:10;18.33;;;7.85;;
74510;SDS011;62991;50.040;18.400;2024-02-15T06:35:29;18.77;;;8.35;;
74510;SDS011;62991;50.040;18.400;2024-02-15T06:38:48;10.90;;;5.50;;
74510;SDS011;62991;50.040;18.400;2024-02-15T06:42:08;17.17;;;6.97;;
74510;SDS011;62991;50.040;18.400;2024-02-15T06:45:10;15.07;;;7.03;;
74510;SDS011;62991;50.040;18.400;2024-02-15T06:48:13;16.73;;;6.43;;
74510;SDS011;62991;50.040;18.400;2024-02-15T06:51:13;16.75;;;7.03;;
74510;SDS011;62991;50.040;18.400;2024-02-15T06:54:15;17.88;;;6.40;;
74510;SDS011;62991;50.040;18.400;2024-02-15T06:57:17;19.67;;;7.18;;
74510;SDS011;62991;50.040;18.400;2024-02-15T07:00:18;12.55;;;7.13;;
74510;SDS011;62991;50.040;18.400;2024-02-15T07:03:19;15.88;;;6.85;;
74510;SDS011;62991;50.040;18.400;2024-02-15T07:06:22;13.57;;;6.40;;
74510;SDS011;62991;50.040;18.400;2024-02-15T07:09:22;15.35;;;6.63;;
74510;SDS011;62991;50.040;18.400;2024-02-15T07:12:24;17.27;;;7.40;;
74510;SDS011;62991;50.040;18.400;2024-02-15T07:15:25;16.30;;;6.63;;
74510;SDS011;62991;50.040;18.400;2024-02-15T07:18:27;16.90;;;6.10;;
74510;SDS011;62991;50.040;18.400;2024-02-15T07:21:28;15.85;;;5.90;;
74510;SDS011;62991;50.040;18.400;2024-02-15T07:24:29;25.33;;;7.85;;
74510;SDS011;62991;50.040;18.400;2024-02-15T07:27:29;16.90;;;6.35;;
74510;SDS011;62991;50.040;18.400;2024-02-15T07:30:30;16.02;;;6.28;;
74510;SDS011;62991;50.040;18.400;2024-02-15T07:33:31;9.75;;;5.45;;
74510;SDS011;62991;50.040;18.400;2024-02-15T07:36:32;14.10;;;6.95;;
74510;SDS011;62991;50.040;18.400;2024-02-15T07:39:32;15.63;;;6.30;;
74510;SDS011;62991;50.040;18.400;2024-02-15T07:42:34;20.25;;;6.65;;
74510;SDS011;62991;50.040;18.400;2024-02-15T07:45:35;19.45;;;6.18;;
74510;SDS011;62991;50.040;18.400;2024-02-15T07:48:37;14.88;;;5.65;;
74510;SDS011;62991;50.040;18.400;2024-02-15T07:51:39;24.20;;;6.53;;
74510;SDS011;62991;50.040;18.400;2024-02-15T07:54:40;13.55;;;5.28;;
74510;SDS011;62991;50.040;18.400;2024-02-15T07:57:41;12.45;;;5.90;;
74510;SDS011;62991;50.040;18.400;2024-02-15T08:00:41;21.10;;;7.90;;
74510;SDS011;62991;50.040;18.400;2024-02-15T08:03:43;9.95;;;3.30;;
74510;SDS011;62991;50.040;18.400;2024-02-15T08:06:46;10.95;;;6.63;;
74510;SDS011;62991;50.040;18.400;2024-02-15T08:09:48;17.40;;;6.40;;
74510;SDS011;62991;50.040;18.400;2024-02-15T08:12:51;7.47;;;3.80;;
74510;SDS011;62991;50.040;18.400;2024-02-15T08:15:53;5.72;;;3.58;;
74510;SDS011;62991;50.040;18.400;2024-02-15T08:18:53;12.55;;;5.22;;
74510;SDS011;62991;50.040;18.400;2024-02-15T08:21:55;8.18;;;4.03;;
74510;SDS011;62991;50.040;18.400;2024-02-15T08:24:56;5.03;;;3.08;;
74510;SDS011;62991;50.040;18.400;2024-02-15T08:27:57;13.48;;;4.72;;
74510;SDS011;62991;50.040;18.400;2024-02-15T08:30:57;11.48;;;4.60;;
74510;SDS011;62991;50.040;18.400;2024-02-15T08:33:58;7.05;;;3.13;;
74510;SDS011;62991;50.040;18.400;2024-02-15T08:37:00;9.68;;;4.05;;
74510;SDS011;62991;50.040;18.400;2024-02-15T08:40:03;8.32;;;3.80;;
74510;SDS011;62991;50.040;18.400;2024-02-15T08:43:11;8.57;;;3.63;;
74510;SDS011;62991;50.040;18.400;2024-02-15T08:46:12;11.20;;;4.68;;
74510;SDS011;62991;50.040;18.400;2024-02-15T08:49:12;14.55;;;5.80;;
74510;SDS011;62991;50.040;18.400;2024-02-15T08:52:13;10.15;;;4.05;;
74510;SDS011;62991;50.040;18.400;2024-02-15T08:55:14;8.15;;;3.42;;
74510;SDS011;62991;50.040;18.400;2024-02-15T08:58:15;9.70;;;3.97;;
74510;SDS011;62991;50.040;18.400;2024-02-15T09:01:16;11.32;;;5.22;;
74510;SDS011;62991;50.040;18.400;2024-02-15T09:04:16;12.85;;;5.80;;
74510;SDS011;62991;50.040;18.400;2024-02-15T09:07:17;9.52;;;3.15;;
74510;SDS011;62991;50.040;18.400;2024-02-15T09:10:18;10.02;;;3.38;;
74510;SDS011;62991;50.040;18.400;2024-02-15T09:13:19;11.40;;;5.43;;
74510;SDS011;62991;50.040;18.400;2024-02-15T09:16:19;11.90;;;3.80;;
74510;SDS011;62991;50.040;18.400;2024-02-15T09:19:21;9.57;;;3.95;;
74510;SDS011;62991;50.040;18.400;2024-02-15T09:22:24;10.15;;;4.75;;
74510;SDS011;62991;50.040;18.400;2024-02-15T09:25:24;10.70;;;4.50;;
74510;SDS011;62991;50.040;18.400;2024-02-15T09:28:25;9.32;;;4.35;;
74510;SDS011;62991;50.040;18.400;2024-02-15T09:31:26;5.53;;;3.00;;
74510;SDS011;62991;50.040;18.400;2024-02-15T09:34:26;11.45;;;3.55;;
74510;SDS011;62991;50.040;18.400;2024-02-15T09:37:27;6.72;;;3.17;;
74510;SDS011;62991;50.040;18.400;2024-02-15T09:40:29;5.25;;;2.80;;
74510;SDS011;62991;50.040;18.400;2024-02-15T09:43:30;7.03;;;2.78;;
74510;SDS011;62991;50.040;18.400;2024-02-15T09:46:34;7.57;;;3.55;;
74510;SDS011;62991;50.040;18.400;2024-02-15T09:49:36;2.83;;;1.88;;
74510;SDS011;62991;50.040;18.400;2024-02-15T09:52:39;5.80;;;2.55;;
74510;SDS011;62991;50.040;18.400;2024-02-15T09:55:43;8.02;;;3.50;;
74510;SDS011;62991;50.040;18.400;2024-02-15T09:58:44;5.65;;;2.67;;
74510;SDS011;62991;50.040;18.400;2024-02-15T10:01:45;6.38;;;2.85;;
74510;SDS011;62991;50.040;18.400;2024-02-15T10:04:48;10.15;;;4.22;;
74510;SDS011;62991;50.040;18.400;2024-02-15T10:07:50;7.47;;;2.78;;
74510;SDS011;62991;50.040;18.400;2024-02-15T10:11:10;2.13;;;1.45;;
74510;SDS011;62991;50.040;18.400;2024-02-15T10:14:11;5.82;;;3.42;;
74510;SDS011;62991;50.040;18.400;2024-02-15T10:17:11;8.95;;;3.30;;
74510;SDS011;62991;50.040;18.400;2024-02-15T10:20:13;7.70;;;3.85;;
74510;SDS011;62991;50.040;18.400;2024-02-15T10:23:15;8.43;;;3.75;;
74510;SDS011;62991;50.040;18.400;2024-02-15T10:26:19;8.88;;;4.22;;
74510;SDS011;62991;50.040;18.400;2024-02-15T10:29:22;6.57;;;2.75;;
74510;SDS011;62991;50.040;18.400;2024-02-15T10:32:23;6.53;;;3.33;;
74510;SDS011;62991;50.040;18.400;2024-02-15T10:35:35;6.30;;;3.22;;
74510;SDS011;62991;50.040;18.400;2024-02-15T10:38:36;8.60;;;3.75;;
74510;SDS011;62991;50.040;18.400;2024-02-15T10:41:38;16.20;;;4.75;;
74510;SDS011;62991;50.040;18.400;2024-02-15T10:44:40;14.60;;;4.65;;
74510;SDS011;62991;50.040;18.400;2024-02-15T10:47:46;8.25;;;3.33;;
74510;SDS011;62991;50.040;18.400;2024-02-15T10:50:50;15.23;;;5.25;;
74510;SDS011;62991;50.040;18.400;2024-02-15T10:53:57;8.73;;;3.90;;
74510;SDS011;62991;50.040;18.400;2024-02-15T10:57:04;7.13;;;3.28;;
74510;SDS011;62991;50.040;18.400;2024-02-15T11:00:06;9.02;;;3.47;;
74510;SDS011;62991;50.040;18.400;2024-02-15T11:03:11;7.43;;;3.28;;
74510;SDS011;62991;50.040;18.400;2024-02-15T11:06:38;6.55;;;2.72;;
74510;SDS011;62991;50.040;18.400;2024-02-15T11:09:41;12.88;;;4.05;;
74510;SDS011;62991;50.040;18.400;2024-02-15T11:12:43;8.60;;;4.25;;
74510;SDS011;62991;50.040;18.400;2024-02-15T11:15:47;16.52;;;5.38;;
74510;SDS011;62991;50.040;18.400;2024-02-15T11:18:53;13.23;;;5.53;;
74510;SDS011;62991;50.040;18.400;2024-02-15T11:21:55;10.30;;;3.63;;
74510;SDS011;62991;50.040;18.400;2024-02-15T11:24:57;12.48;;;3.78;;
74510;SDS011;62991;50.040;18.400;2024-02-15T11:27:57;5.70;;;2.95;;
74510;SDS011;62991;50.040;18.400;2024-02-15T11:31:53;3.67;;;1.70;;
74510;SDS011;62991;50.040;18.400;2024-02-15T11:35:02;12.38;;;4.22;;
74510;SDS011;62991;50.040;18.400;2024-02-15T11:38:10;8.02;;;4.00;;
74510;SDS011;62991;50.040;18.400;2024-02-15T11:41:28;8.40;;;3.22;;
74510;SDS011;62991;50.040;18.400;2024-02-15T11:44:29;9.25;;;2.63;;
74510;SDS011;62991;50.040;18.400;2024-02-15T11:47:32;8.85;;;2.58;;
74510;SDS011;62991;50.040;18.400;2024-02-15T11:50:41;7.40;;;3.00;;
74510;SDS011;62991;50.040;18.400;2024-02-15T11:53:42;5.90;;;3.33;;
74510;SDS011;62991;50.040;18.400;2024-02-15T12:00:08;12.50;;;5.35;;
74510;SDS011;62991;50.040;18.400;2024-02-15T12:03:28;3.60;;;1.77;;
74510;SDS011;62991;50.040;18.400;2024-02-15T12:06:47;3.08;;;1.67;;
74510;SDS011;62991;50.040;18.400;2024-02-15T12:10:06;7.30;;;2.83;;
74510;SDS011;62991;50.040;18.400;2024-02-15T12:13:26;8.65;;;3.28;;
74510;SDS011;62991;50.040;18.400;2024-02-15T12:16:45;7.60;;;3.03;;
74510;SDS011;62991;50.040;18.400;2024-02-15T12:20:04;7.45;;;3.33;;
74510;SDS011;62991;50.040;18.400;2024-02-15T12:23:11;6.53;;;3.42;;
74510;SDS011;62991;50.040;18.400;2024-02-15T12:26:14;8.32;;;3.17;;
74510;SDS011;62991;50.040;18.400;2024-02-15T12:29:17;6.32;;;3.40;;
74510;SDS011;62991;50.040;18.400;2024-02-15T12:32:21;10.80;;;4.22;;
74510;SDS011;62991;50.040;18.400;2024-02-15T12:35:23;12.50;;;3.70;;
74510;SDS011;62991;50.040;18.400;2024-02-15T12:38:25;10.75;;;3.90;;
74510;SDS011;62991;50.040;18.400;2024-02-15T12:41:26;8.93;;;3.72;;
74510;SDS011;62991;50.040;18.400;2024-02-15T12:44:26;8.15;;;3.40;;
74510;SDS011;62991;50.040;18.400;2024-02-15T12:47:32;8.43;;;2.65;;
74510;SDS011;62991;50.040;18.400;2024-02-15T12:50:33;9.13;;;3.42;;
74510;SDS011;62991;50.040;18.400;2024-02-15T12:53:34;7.50;;;2.97;;
74510;SDS011;62991;50.040;18.400;2024-02-15T12:56:35;7.55;;;3.60;;
74510;SDS011;62991;50.040;18.400;2024-02-15T12:59:36;10.80;;;4.35;;
74510;SDS011;62991;50.040;18.400;2024-02-15T13:02:37;10.77;;;4.43;;
74510;SDS011;62991;50.040;18.400;2024-02-15T13:05:38;10.23;;;4.00;;
74510;SDS011;62991;50.040;18.400;2024-02-15T13:08:39;9.68;;;3.63;;
74510;SDS011;62991;50.040;18.400;2024-02-15T13:11:39;7.28;;;2.72;;
74510;SDS011;62991;50.040;18.400;2024-02-15T13:14:40;3.47;;;1.85;;
74510;SDS011;62991;50.040;18.400;2024-02-15T13:17:44;5.88;;;2.88;;
74510;SDS011;62991;50.040;18.400;2024-02-15T13:20:51;5.60;;;2.33;;
74510;SDS011;62991;50.040;18.400;2024-02-15T13:23:52;15.10;;;5.53;;
74510;SDS011;62991;50.040;18.400;2024-02-15T13:26:53;9.57;;;4.22;;
74510;SDS011;62991;50.040;18.400;2024-02-15T13:29:54;12.95;;;5.55;;
74510;SDS011;62991;50.040;18.400;2024-02-15T13:32:54;36.90;;;16.02;;
74510;SDS011;62991;50.040;18.400;2024-02-15T13:35:55;13.75;;;5.75;;
74510;SDS011;62991;50.040;18.400;2024-02-15T13:38:56;13.88;;;5.65;;
74510;SDS011;62991;50.040;18.400;2024-02-15T13:41:57;14.90;;;4.63;;
74510;SDS011;62991;50.040;18.400;2024-02-15T13:44:59;9.05;;;4.93;;
74510;SDS011;62991;50.040;18.400;2024-02-15T13:48:00;9.25;;;4.30;;
74510;SDS011;62991;50.040;18.400;2024-02-15T13:51:01;8.32;;;4.22;;
74510;SDS011;62991;50.040;18.400;2024-02-15T13:54:02;20.20;;;9.15;;
74510;SDS011;62991;50.040;18.400;2024-02-15T13:57:03;7.07;;;3.17;;
74510;SDS011;62991;50.040;18.400;2024-02-15T14:00:04;15.15;;;4.90;;
74510;SDS011;62991;50.040;18.400;2024-02-15T14:03:06;7.15;;;3.45;;
74510;SDS011;62991;50.040;18.400;2024-02-15T14:06:06;12.82;;;5.30;;
74510;SDS011;62991;50.040;18.400;2024-02-15T14:09:07;6.60;;;3.28;;
74510;SDS011;62991;50.040;18.400;2024-02-15T14:12:11;13.02;;;3.90;;
74510;SDS011;62991;50.040;18.400;2024-02-15T14:15:12;10.45;;;3.95;;
74510;SDS011;62991;50.040;18.400;2024-02-15T14:18:13;3.58;;;1.98;;
74510;SDS011;62991;50.040;18.400;2024-02-15T14:21:14;9.40;;;4.15;;
74510;SDS011;62991;50.040;18.400;2024-02-15T14:24:16;6.53;;;3.20;;
74510;SDS011;62991;50.040;18.400;2024-02-15T14:27:19;14.02;;;5.07;;
74510;SDS011;62991;50.040;18.400;2024-02-15T14:30:19;6.70;;;3.15;;
74510;SDS011;62991;50.040;18.400;2024-02-15T14:33:40;8.23;;;3.22;;
74510;SDS011;62991;50.040;18.400;2024-02-15T14:36:41;8.98;;;3.72;;
74510;SDS011;62991;50.040;18.400;2024-02-15T14:39:42;9.35;;;3.97;;
74510;SDS011;62991;50.040;18.400;2024-02-15T14:42:43;9.20;;;4.65;;
74510;SDS011;62991;50.040;18.400;2024-02-15T14:45:44;9.05;;;3.70;;
74510;SDS011;62991;50.040;18.400;2024-02-15T14:48:44;6.90;;;3.38;;
74510;SDS011;62991;50.040;18.400;2024-02-15T14:51:47;8.65;;;3.60;;
74510;SDS011;62991;50.040;18.400;2024-02-15T14:54:51;15.80;;;4.65;;
74510;SDS011;62991;50.040;18.400;2024-02-15T14:57:52;13.05;;;3.58;;
74510;SDS011;62991;50.040;18.400;2024-02-15T15:00:52;8.35;;;4.28;;
74510;SDS011;62991;50.040;18.400;2024-02-15T15:03:54;25.23;;;9.98;;
74510;SDS011;62991;50.040;18.400;2024-02-15T15:06:55;53.15;;;19.27;;
74510;SDS011;62991;50.040;18.400;2024-02-15T15:10:14;15.25;;;6.10;;
74510;SDS011;62991;50.040;18.400;2024-02-15T15:13:33;43.45;;;17.33;;
74510;SDS011;62991;50.040;18.400;2024-02-15T15:16:34;19.30;;;7.88;;
74510;SDS011;62991;50.040;18.400;2024-02-15T15:19:35;30.95;;;10.90;;
74510;SDS011;62991;50.040;18.400;2024-02-15T15:22:37;17.00;;;6.28;;
74510;SDS011;62991;50.040;18.400;2024-02-15T15:25:39;20.77;;;9.48;;
74510;SDS011;62991;50.040;18.400;2024-02-15T15:28:40;24.52;;;9.80;;
74510;SDS011;62991;50.040;18.400;2024-02-15T15:31:41;21.67;;;9.23;;
74510;SDS011;62991;50.040;18.400;2024-02-15T15:34:41;58.28;;;20.10;;
74510;SDS011;62991;50.040;18.400;2024-02-15T15:37:42;49.38;;;18.23;;
74510;SDS011;62991;50.040;18.400;2024-02-15T15:40:43;36.53;;;13.52;;
74510;SDS011;62991;50.040;18.400;2024-02-15T15:43:45;27.08;;;9.00;;
74510;SDS011;62991;50.040;18.400;2024-02-15T15:46:46;15.43;;;6.25;;
74510;SDS011;62991;50.040;18.400;2024-02-15T15:49:47;31.33;;;13.25;;
74510;SDS011;62991;50.040;18.400;2024-02-15T15:52:47;32.17;;;9.50;;
74510;SDS011;62991;50.040;18.400;2024-02-15T15:55:48;19.23;;;9.48;;
74510;SDS011;62991;50.040;18.400;2024-02-15T15:59:02;28.50;;;12.05;;
74510;SDS011;62991;50.040;18.400;2024-02-15T16:02:05;45.22;;;15.70;;
74510;SDS011;62991;50.040;18.400;2024-02-15T16:05:06;40.55;;;14.50;;
74510;SDS011;62991;50.040;18.400;2024-02-15T16:08:08;38.80;;;14.65;;
74510;SDS011;62991;50.040;18.400;2024-02-15T16:11:09;46.17;;;18.98;;
74510;SDS011;62991;50.040;18.400;2024-02-15T16:14:13;39.53;;;14.23;;
74510;SDS011;62991;50.040;18.400;2024-02-15T16:17:15;36.15;;;13.40;;
74510;SDS011;62991;50.040;18.400;2024-02-15T16:20:16;43.15;;;15.60;;
74510;SDS011;62991;50.040;18.400;2024-02-15T16:23:18;50.00;;;20.15;;
74510;SDS011;62991;50.040;18.400;2024-02-15T16:26:18;48.83;;;18.67;;
74510;SDS011;62991;50.040;18.400;2024-02-15T16:29:19;58.78;;;23.45;;
74510;SDS011;62991;50.040;18.400;2024-02-15T16:32:20;67.05;;;22.98;;
74510;SDS011;62991;50.040;18.400;2024-02-15T16:35:20;79.18;;;33.60;;
74510;SDS011;62991;50.040;18.400;2024-02-15T16:38:22;57.22;;;24.33;;
74510;SDS011;62991;50.040;18.400;2024-02-15T16:41:23;56.97;;;19.35;;
74510;SDS011;62991;50.040;18.400;2024-02-15T16:44:30;66.65;;;22.27;;
74510;SDS011;62991;50.040;18.400;2024-02-15T16:47:31;57.75;;;17.50;;
74510;SDS011;62991;50.040;18.400;2024-02-15T16:50:31;34.75;;;13.68;;
74510;SDS011;62991;50.040;18.400;2024-02-15T16:53:34;44.60;;;15.63;;
74510;SDS011;62991;50.040;18.400;2024-02-15T16:56:35;48.95;;;17.00;;
74510;SDS011;62991;50.040;18.400;2024-02-15T16:59:36;59.90;;;20.65;;
74510;SDS011;62991;50.040;18.400;2024-02-15T17:02:40;68.78;;;25.17;;
74510;SDS011;62991;50.040;18.400;2024-02-15T17:05:41;76.50;;;23.25;;
74510;SDS011;62991;50.040;18.400;2024-02-15T17:08:42;75.65;;;25.83;;
74510;SDS011;62991;50.040;18.400;2024-02-15T17:11:45;47.17;;;17.65;;
74510;SDS011;62991;50.040;18.400;2024-02-15T17:14:46;82.00;;;29.40;;
74510;SDS011;62991;50.040;18.400;2024-02-15T17:17:47;51.45;;;19.35;;
74510;SDS011;62991;50.040;18.400;2024-02-15T17:20:48;45.58;;;19.30;;
74510;SDS011;62991;50.040;18.400;2024-02-15T17:23:49;39.85;;;16.52;;
74510;SDS011;62991;50.040;18.400;2024-02-15T17:26:50;48.15;;;18.33;;
74510;SDS011;62991;50.040;18.400;2024-02-15T17:29:51;43.30;;;15.95;;
74510;SDS011;62991;50.040;18.400;2024-02-15T17:32:52;42.42;;;19.60;;
74510;SDS011;62991;50.040;18.400;2024-02-15T17:35:53;43.28;;;17.05;;
74510;SDS011;62991;50.040;18.400;2024-02-15T17:38:54;34.00;;;14.18;;
74510;SDS011;62991;50.040;18.400;2024-02-15T17:41:55;42.90;;;17.48;;
74510;SDS011;62991;50.040;18.400;2024-02-15T17:44:55;41.53;;;16.75;;
74510;SDS011;62991;50.040;18.400;2024-02-15T17:47:56;46.60;;;19.27;;
74510;SDS011;62991;50.040;18.400;2024-02-15T17:50:57;47.40;;;17.63;;
74510;SDS011;62991;50.040;18.400;2024-02-15T17:53:57;49.97;;;18.60;;
74510;SDS011;62991;50.040;18.400;2024-02-15T17:56:58;60.65;;;21.90;;